sensor_id;sensor_type;location;lat;lon;timestamp;P1;durP1;ratioP1;P2;durP2;ratioP2
15312;SDS011;7757;52.626;4.746;2022-09-16T00:00:47;8.27;;;0.93;;
15312;SDS011;7757;52.626;4.746;2022-09-16T00:03:16;5.05;;;0.65;;
15312;SDS011;7757;52.626;4.746;2022-09-16T00:05:43;5.20;;;0.73;;
15312;SDS011;7757;52.626;4.746;2022-09-16T00:08:11;5.55;;;0.80;;
15312;SDS011;7757;52.626;4.746;2022-09-16T00:10:40;4.38;;;0.75;;
15312;SDS011;7757;52.626;4.746;2022-09-16T00:13:08;4.53;;;1.00;;
15312;SDS011;7757;52.626;4.746;2022-09-16T00:15:35;3.55;;;0.90;;
15312;SDS011;7757;52.626;4.746;2022-09-16T00:18:02;4.03;;;0.70;;
15312;SDS011;7757;52.626;4.746;2022-09-16T00:20:28;1.95;;;0.60;;
15312;SDS011;7757;52.626;4.746;2022-09-16T00:22:55;4.13;;;0.65;;
15312;SDS011;7757;52.626;4.746;2022-09-16T00:25:21;6.60;;;1.05;;
15312;SDS011;7757;52.626;4.746;2022-09-16T00:27:49;3.10;;;0.77;;
15312;SDS011;7757;52.626;4.746;2022-09-16T00:30:16;3.30;;;0.73;;
15312;SDS011;7757;52.626;4.746;2022-09-16T00:32:42;3.42;;;0.68;;
15312;SDS011;7757;52.626;4.746;2022-09-16T00:35:09;5.72;;;1.02;;
15312;SDS011;7757;52.626;4.746;2022-09-16T00:37:36;4.90;;;0.90;;
15312;SDS011;7757;52.626;4.746;2022-09-16T00:40:02;8.00;;;0.98;;
15312;SDS011;7757;52.626;4.746;2022-09-16T00:42:29;7.15;;;1.02;;
15312;SDS011;7757;52.626;4.746;2022-09-16T00:44:58;4.50;;;0.95;;
15312;SDS011;7757;52.626;4.746;2022-09-16T00:47:28;3.30;;;0.65;;
15312;SDS011;7757;52.626;4.746;2022-09-16T00:50:01;3.30;;;0.77;;
15312;SDS011;7757;52.626;4.746;2022-09-16T00:52:30;4.07;;;0.80;;
15312;SDS011;7757;52.626;4.746;2022-09-16T00:54:57;7.05;;;0.90;;
15312;SDS011;7757;52.626;4.746;2022-09-16T00:57:28;3.58;;;0.73;;
15312;SDS011;7757;52.626;4.746;2022-09-16T00:59:54;3.95;;;0.80;;
15312;SDS011;7757;52.626;4.746;2022-09-16T01:02:24;3.42;;;0.82;;
15312;SDS011;7757;52.626;4.746;2022-09-16T01:04:53;2.63;;;0.52;;
15312;SDS011;7757;52.626;4.746;2022-09-16T01:07:26;4.18;;;0.98;;
15312;SDS011;7757;52.626;4.746;2022-09-16T01:09:56;4.55;;;0.80;;
15312;SDS011;7757;52.626;4.746;2022-09-16T01:12:23;6.13;;;1.00;;
15312;SDS011;7757;52.626;4.746;2022-09-16T01:14:54;2.22;;;0.73;;
15312;SDS011;7757;52.626;4.746;2022-09-16T01:17:39;2.78;;;0.80;;
15312;SDS011;7757;52.626;4.746;2022-09-16T01:20:20;2.72;;;0.55;;
15312;SDS011;7757;52.626;4.746;2022-09-16T01:23:05;1.60;;;0.70;;
15312;SDS011;7757;52.626;4.746;2022-09-16T01:25:48;3.40;;;0.77;;
15312;SDS011;7757;52.626;4.746;2022-09-16T01:28:30;4.75;;;0.85;;
15312;SDS011;7757;52.626;4.746;2022-09-16T01:31:11;7.53;;;1.30;;
15312;SDS011;7757;52.626;4.746;2022-09-16T01:33:42;8.90;;;1.40;;
15312;SDS011;7757;52.626;4.746;2022-09-16T01:36:22;6.32;;;1.20;;
15312;SDS011;7757;52.626;4.746;2022-09-16T01:39:00;6.35;;;1.10;;
15312;SDS011;7757;52.626;4.746;2022-09-16T01:41:39;4.47;;;0.73;;
15312;SDS011;7757;52.626;4.746;2022-09-16T01:44:12;4.15;;;0.80;;
15312;SDS011;7757;52.626;4.746;2022-09-16T01:46:53;2.97;;;0.88;;
15312;SDS011;7757;52.626;4.746;2022-09-16T01:49:29;3.72;;;0.70;;
15312;SDS011;7757;52.626;4.746;2022-09-16T01:52:10;6.28;;;0.90;;
15312;SDS011;7757;52.626;4.746;2022-09-16T01:54:46;4.93;;;0.90;;
15312;SDS011;7757;52.626;4.746;2022-09-16T01:57:19;3.92;;;0.70;;
15312;SDS011;7757;52.626;4.746;2022-09-16T01:59:49;5.25;;;0.88;;
15312;SDS011;7757;52.626;4.746;2022-09-16T02:02:23;4.80;;;0.75;;
15312;SDS011;7757;52.626;4.746;2022-09-16T02:04:57;2.88;;;0.45;;
15312;SDS011;7757;52.626;4.746;2022-09-16T02:07:30;6.90;;;1.15;;
15312;SDS011;7757;52.626;4.746;2022-09-16T02:10:01;11.05;;;1.25;;
15312;SDS011;7757;52.626;4.746;2022-09-16T02:12:34;8.15;;;1.13;;
15312;SDS011;7757;52.626;4.746;2022-09-16T02:15:05;7.47;;;1.10;;
15312;SDS011;7757;52.626;4.746;2022-09-16T02:17:38;4.82;;;0.90;;
15312;SDS011;7757;52.626;4.746;2022-09-16T02:20:12;7.22;;;1.10;;
15312;SDS011;7757;52.626;4.746;2022-09-16T02:22:42;4.85;;;1.05;;
15312;SDS011;7757;52.626;4.746;2022-09-16T02:25:12;4.50;;;0.93;;
15312;SDS011;7757;52.626;4.746;2022-09-16T02:27:41;3.35;;;0.80;;
15312;SDS011;7757;52.626;4.746;2022-09-16T02:30:13;4.50;;;0.68;;
15312;SDS011;7757;52.626;4.746;2022-09-16T02:32:44;5.72;;;0.98;;
15312;SDS011;7757;52.626;4.746;2022-09-16T02:35:14;5.10;;;0.82;;
15312;SDS011;7757;52.626;4.746;2022-09-16T02:37:44;6.68;;;1.20;;
15312;SDS011;7757;52.626;4.746;2022-09-16T02:40:16;3.83;;;0.73;;
15312;SDS011;7757;52.626;4.746;2022-09-16T02:42:47;4.90;;;1.00;;
15312;SDS011;7757;52.626;4.746;2022-09-16T02:45:14;8.93;;;1.20;;
15312;SDS011;7757;52.626;4.746;2022-09-16T02:47:44;5.82;;;0.90;;
15312;SDS011;7757;52.626;4.746;2022-09-16T02:50:20;3.78;;;0.88;;
15312;SDS011;7757;52.626;4.746;2022-09-16T02:52:53;6.32;;;1.20;;
15312;SDS011;7757;52.626;4.746;2022-09-16T02:55:27;4.20;;;0.80;;
15312;SDS011;7757;52.626;4.746;2022-09-16T02:58:02;8.90;;;1.10;;
15312;SDS011;7757;52.626;4.746;2022-09-16T03:00:29;5.38;;;0.95;;
15312;SDS011;7757;52.626;4.746;2022-09-16T03:02:59;5.80;;;1.00;;
15312;SDS011;7757;52.626;4.746;2022-09-16T03:05:26;3.13;;;0.70;;
15312;SDS011;7757;52.626;4.746;2022-09-16T03:07:53;6.85;;;1.00;;
15312;SDS011;7757;52.626;4.746;2022-09-16T03:10:20;7.55;;;1.00;;
15312;SDS011;7757;52.626;4.746;2022-09-16T03:12:53;5.00;;;1.20;;
15312;SDS011;7757;52.626;4.746;2022-09-16T03:15:35;5.32;;;0.98;;
15312;SDS011;7757;52.626;4.746;2022-09-16T03:21:16;5.97;;;0.80;;
15312;SDS011;7757;52.626;4.746;2022-09-16T03:23:51;5.32;;;0.88;;
15312;SDS011;7757;52.626;4.746;2022-09-16T03:26:27;5.03;;;0.93;;
15312;SDS011;7757;52.626;4.746;2022-09-16T03:29:01;5.45;;;0.90;;
15312;SDS011;7757;52.626;4.746;2022-09-16T03:31:39;4.65;;;1.00;;
15312;SDS011;7757;52.626;4.746;2022-09-16T03:34:14;4.07;;;0.90;;
15312;SDS011;7757;52.626;4.746;2022-09-16T03:36:46;6.97;;;1.30;;
15312;SDS011;7757;52.626;4.746;2022-09-16T03:39:17;8.95;;;0.82;;
15312;SDS011;7757;52.626;4.746;2022-09-16T03:41:46;5.15;;;1.00;;
15312;SDS011;7757;52.626;4.746;2022-09-16T03:44:13;6.35;;;1.25;;
15312;SDS011;7757;52.626;4.746;2022-09-16T03:46:39;7.53;;;1.10;;
15312;SDS011;7757;52.626;4.746;2022-09-16T03:49:06;7.07;;;1.10;;
15312;SDS011;7757;52.626;4.746;2022-09-16T03:51:34;5.93;;;0.88;;
15312;SDS011;7757;52.626;4.746;2022-09-16T03:54:00;8.25;;;1.42;;
15312;SDS011;7757;52.626;4.746;2022-09-16T03:56:27;5.00;;;0.85;;
15312;SDS011;7757;52.626;4.746;2022-09-16T03:58:53;7.13;;;1.25;;
15312;SDS011;7757;52.626;4.746;2022-09-16T04:01:20;8.07;;;1.10;;
15312;SDS011;7757;52.626;4.746;2022-09-16T04:03:46;9.05;;;1.17;;
15312;SDS011;7757;52.626;4.746;2022-09-16T04:06:13;4.68;;;0.90;;
15312;SDS011;7757;52.626;4.746;2022-09-16T04:08:41;11.73;;;1.35;;
15312;SDS011;7757;52.626;4.746;2022-09-16T04:11:08;7.35;;;1.10;;
15312;SDS011;7757;52.626;4.746;2022-09-16T04:13:35;8.98;;;1.58;;
15312;SDS011;7757;52.626;4.746;2022-09-16T04:16:02;8.27;;;1.10;;
15312;SDS011;7757;52.626;4.746;2022-09-16T04:18:29;8.85;;;1.23;;
15312;SDS011;7757;52.626;4.746;2022-09-16T04:20:56;10.13;;;1.50;;
15312;SDS011;7757;52.626;4.746;2022-09-16T04:23:23;10.90;;;1.48;;
15312;SDS011;7757;52.626;4.746;2022-09-16T04:25:55;10.48;;;1.65;;
15312;SDS011;7757;52.626;4.746;2022-09-16T04:28:22;12.10;;;1.33;;
15312;SDS011;7757;52.626;4.746;2022-09-16T04:30:49;11.98;;;1.65;;
15312;SDS011;7757;52.626;4.746;2022-09-16T04:33:16;12.20;;;1.38;;
15312;SDS011;7757;52.626;4.746;2022-09-16T04:35:42;9.45;;;1.10;;
15312;SDS011;7757;52.626;4.746;2022-09-16T04:38:09;8.90;;;1.30;;
15312;SDS011;7757;52.626;4.746;2022-09-16T04:40:35;8.77;;;1.20;;
15312;SDS011;7757;52.626;4.746;2022-09-16T04:43:05;4.93;;;0.88;;
15312;SDS011;7757;52.626;4.746;2022-09-16T04:45:31;7.18;;;1.13;;
15312;SDS011;7757;52.626;4.746;2022-09-16T04:47:58;4.32;;;0.90;;
15312;SDS011;7757;52.626;4.746;2022-09-16T04:50:24;6.10;;;1.13;;
15312;SDS011;7757;52.626;4.746;2022-09-16T04:52:51;7.97;;;1.52;;
15312;SDS011;7757;52.626;4.746;2022-09-16T04:55:18;5.03;;;0.90;;
15312;SDS011;7757;52.626;4.746;2022-09-16T04:57:47;9.10;;;1.60;;
15312;SDS011;7757;52.626;4.746;2022-09-16T05:00:15;8.07;;;1.25;;
15312;SDS011;7757;52.626;4.746;2022-09-16T05:02:42;5.68;;;1.10;;
15312;SDS011;7757;52.626;4.746;2022-09-16T05:05:09;9.13;;;0.95;;
15312;SDS011;7757;52.626;4.746;2022-09-16T05:07:35;9.20;;;1.10;;
15312;SDS011;7757;52.626;4.746;2022-09-16T05:10:02;11.93;;;1.10;;
15312;SDS011;7757;52.626;4.746;2022-09-16T05:12:29;7.03;;;1.45;;
15312;SDS011;7757;52.626;4.746;2022-09-16T05:14:55;6.18;;;1.20;;
15312;SDS011;7757;52.626;4.746;2022-09-16T05:17:24;9.98;;;1.40;;
15312;SDS011;7757;52.626;4.746;2022-09-16T05:19:50;7.25;;;0.95;;
15312;SDS011;7757;52.626;4.746;2022-09-16T05:22:17;6.43;;;1.10;;
15312;SDS011;7757;52.626;4.746;2022-09-16T05:24:43;8.00;;;1.30;;
15312;SDS011;7757;52.626;4.746;2022-09-16T05:27:10;8.05;;;1.35;;
15312;SDS011;7757;52.626;4.746;2022-09-16T05:29:36;4.57;;;0.93;;
15312;SDS011;7757;52.626;4.746;2022-09-16T05:32:03;2.95;;;0.85;;
15312;SDS011;7757;52.626;4.746;2022-09-16T05:34:31;5.82;;;1.25;;
15312;SDS011;7757;52.626;4.746;2022-09-16T05:37:00;6.90;;;1.20;;
15312;SDS011;7757;52.626;4.746;2022-09-16T05:39:26;7.95;;;0.93;;
15312;SDS011;7757;52.626;4.746;2022-09-16T05:41:53;9.15;;;1.38;;
15312;SDS011;7757;52.626;4.746;2022-09-16T05:44:21;8.50;;;1.13;;
15312;SDS011;7757;52.626;4.746;2022-09-16T05:46:48;10.18;;;1.05;;
15312;SDS011;7757;52.626;4.746;2022-09-16T05:49:14;8.07;;;1.45;;
15312;SDS011;7757;52.626;4.746;2022-09-16T05:51:46;4.80;;;0.88;;
15312;SDS011;7757;52.626;4.746;2022-09-16T05:54:13;7.97;;;1.10;;
15312;SDS011;7757;52.626;4.746;2022-09-16T05:56:42;7.57;;;1.10;;
15312;SDS011;7757;52.626;4.746;2022-09-16T05:59:09;6.97;;;1.08;;
15312;SDS011;7757;52.626;4.746;2022-09-16T06:01:37;19.10;;;1.10;;
15312;SDS011;7757;52.626;4.746;2022-09-16T06:04:04;5.97;;;1.10;;
15312;SDS011;7757;52.626;4.746;2022-09-16T06:06:33;5.03;;;0.90;;
15312;SDS011;7757;52.626;4.746;2022-09-16T06:09:03;6.90;;;1.40;;
15312;SDS011;7757;52.626;4.746;2022-09-16T06:11:31;5.75;;;0.95;;
15312;SDS011;7757;52.626;4.746;2022-09-16T06:14:02;6.78;;;1.15;;
15312;SDS011;7757;52.626;4.746;2022-09-16T06:16:30;6.82;;;1.10;;
15312;SDS011;7757;52.626;4.746;2022-09-16T06:18:57;5.78;;;0.93;;
15312;SDS011;7757;52.626;4.746;2022-09-16T06:21:25;6.85;;;1.30;;
15312;SDS011;7757;52.626;4.746;2022-09-16T06:23:51;5.00;;;1.00;;
15312;SDS011;7757;52.626;4.746;2022-09-16T06:26:20;5.70;;;1.13;;
15312;SDS011;7757;52.626;4.746;2022-09-16T06:28:48;8.68;;;1.45;;
15312;SDS011;7757;52.626;4.746;2022-09-16T06:31:16;7.88;;;1.35;;
15312;SDS011;7757;52.626;4.746;2022-09-16T06:33:44;7.95;;;1.17;;
15312;SDS011;7757;52.626;4.746;2022-09-16T06:36:11;6.22;;;0.90;;
15312;SDS011;7757;52.626;4.746;2022-09-16T06:38:40;7.50;;;1.10;;
15312;SDS011;7757;52.626;4.746;2022-09-16T06:41:07;6.15;;;1.00;;
15312;SDS011;7757;52.626;4.746;2022-09-16T06:43:36;7.03;;;1.00;;
15312;SDS011;7757;52.626;4.746;2022-09-16T06:46:04;7.80;;;1.30;;
15312;SDS011;7757;52.626;4.746;2022-09-16T06:48:34;8.38;;;1.10;;
15312;SDS011;7757;52.626;4.746;2022-09-16T06:51:02;7.10;;;1.20;;
15312;SDS011;7757;52.626;4.746;2022-09-16T06:53:29;3.95;;;0.90;;
15312;SDS011;7757;52.626;4.746;2022-09-16T06:55:58;5.55;;;1.00;;
15312;SDS011;7757;52.626;4.746;2022-09-16T06:58:26;9.05;;;1.40;;
15312;SDS011;7757;52.626;4.746;2022-09-16T07:00:55;11.18;;;1.48;;
15312;SDS011;7757;52.626;4.746;2022-09-16T07:03:21;9.07;;;1.52;;
15312;SDS011;7757;52.626;4.746;2022-09-16T07:05:53;15.77;;;1.27;;
15312;SDS011;7757;52.626;4.746;2022-09-16T07:08:21;6.57;;;1.05;;
15312;SDS011;7757;52.626;4.746;2022-09-16T07:10:53;11.65;;;1.48;;
15312;SDS011;7757;52.626;4.746;2022-09-16T07:13:21;6.88;;;1.08;;
15312;SDS011;7757;52.626;4.746;2022-09-16T07:15:47;9.15;;;1.13;;
15312;SDS011;7757;52.626;4.746;2022-09-16T07:18:15;10.68;;;1.30;;
15312;SDS011;7757;52.626;4.746;2022-09-16T07:20:42;9.38;;;1.15;;
15312;SDS011;7757;52.626;4.746;2022-09-16T07:23:08;8.20;;;1.17;;
15312;SDS011;7757;52.626;4.746;2022-09-16T07:25:35;13.10;;;1.70;;
15312;SDS011;7757;52.626;4.746;2022-09-16T07:28:02;17.58;;;1.50;;
15312;SDS011;7757;52.626;4.746;2022-09-16T07:30:28;7.32;;;0.95;;
15312;SDS011;7757;52.626;4.746;2022-09-16T07:32:58;6.65;;;1.33;;
15312;SDS011;7757;52.626;4.746;2022-09-16T07:35:26;10.23;;;1.58;;
15312;SDS011;7757;52.626;4.746;2022-09-16T07:37:52;9.90;;;1.27;;
15312;SDS011;7757;52.626;4.746;2022-09-16T07:40:18;8.32;;;1.42;;
15312;SDS011;7757;52.626;4.746;2022-09-16T07:42:45;6.65;;;1.13;;
15312;SDS011;7757;52.626;4.746;2022-09-16T07:45:11;5.75;;;0.88;;
15312;SDS011;7757;52.626;4.746;2022-09-16T07:47:38;7.10;;;1.00;;
15312;SDS011;7757;52.626;4.746;2022-09-16T07:50:05;9.82;;;1.15;;
15312;SDS011;7757;52.626;4.746;2022-09-16T07:52:33;12.95;;;1.52;;
15312;SDS011;7757;52.626;4.746;2022-09-16T07:55:00;6.80;;;1.17;;
15312;SDS011;7757;52.626;4.746;2022-09-16T07:57:26;11.27;;;1.20;;
15312;SDS011;7757;52.626;4.746;2022-09-16T07:59:53;10.05;;;1.35;;
15312;SDS011;7757;52.626;4.746;2022-09-16T08:02:19;9.85;;;1.25;;
15312;SDS011;7757;52.626;4.746;2022-09-16T08:04:46;6.38;;;1.00;;
15312;SDS011;7757;52.626;4.746;2022-09-16T08:07:12;5.15;;;0.93;;
15312;SDS011;7757;52.626;4.746;2022-09-16T08:09:40;13.82;;;1.42;;
15312;SDS011;7757;52.626;4.746;2022-09-16T08:12:07;7.95;;;1.10;;
15312;SDS011;7757;52.626;4.746;2022-09-16T08:14:34;8.35;;;1.30;;
15312;SDS011;7757;52.626;4.746;2022-09-16T08:17:01;7.13;;;1.00;;
15312;SDS011;7757;52.626;4.746;2022-09-16T08:19:28;8.27;;;1.15;;
15312;SDS011;7757;52.626;4.746;2022-09-16T08:21:54;8.80;;;1.20;;
15312;SDS011;7757;52.626;4.746;2022-09-16T08:24:21;6.18;;;0.98;;
15312;SDS011;7757;52.626;4.746;2022-09-16T08:26:49;6.18;;;1.00;;
15312;SDS011;7757;52.626;4.746;2022-09-16T08:29:15;7.45;;;1.20;;
15312;SDS011;7757;52.626;4.746;2022-09-16T08:31:42;5.90;;;1.00;;
15312;SDS011;7757;52.626;4.746;2022-09-16T08:34:08;7.45;;;1.50;;
15312;SDS011;7757;52.626;4.746;2022-09-16T08:36:35;4.93;;;0.95;;
15312;SDS011;7757;52.626;4.746;2022-09-16T08:39:01;3.55;;;1.10;;
15312;SDS011;7757;52.626;4.746;2022-09-16T08:41:34;5.68;;;0.80;;
15312;SDS011;7757;52.626;4.746;2022-09-16T08:44:19;7.65;;;1.02;;
15312;SDS011;7757;52.626;4.746;2022-09-16T08:46:59;6.50;;;1.27;;
15312;SDS011;7757;52.626;4.746;2022-09-16T08:49:29;5.70;;;1.00;;
15312;SDS011;7757;52.626;4.746;2022-09-16T08:52:00;7.97;;;1.25;;
15312;SDS011;7757;52.626;4.746;2022-09-16T08:54:30;5.68;;;1.17;;
15312;SDS011;7757;52.626;4.746;2022-09-16T08:57:02;9.82;;;1.40;;
15312;SDS011;7757;52.626;4.746;2022-09-16T08:59:33;9.00;;;1.30;;
15312;SDS011;7757;52.626;4.746;2022-09-16T09:04:52;5.80;;;1.20;;
15312;SDS011;7757;52.626;4.746;2022-09-16T09:07:22;6.82;;;1.35;;
15312;SDS011;7757;52.626;4.746;2022-09-16T09:09:58;7.90;;;1.33;;
15312;SDS011;7757;52.626;4.746;2022-09-16T09:12:38;6.10;;;1.20;;
15312;SDS011;7757;52.626;4.746;2022-09-16T09:15:11;7.90;;;1.52;;
15312;SDS011;7757;52.626;4.746;2022-09-16T09:17:50;11.38;;;1.58;;
15312;SDS011;7757;52.626;4.746;2022-09-16T09:20:27;12.30;;;1.50;;
15312;SDS011;7757;52.626;4.746;2022-09-16T09:23:12;9.27;;;1.33;;
15312;SDS011;7757;52.626;4.746;2022-09-16T09:25:56;6.93;;;1.20;;
15312;SDS011;7757;52.626;4.746;2022-09-16T09:28:40;8.38;;;1.30;;
15312;SDS011;7757;52.626;4.746;2022-09-16T09:31:22;6.10;;;1.30;;
15312;SDS011;7757;52.626;4.746;2022-09-16T09:33:58;7.55;;;1.20;;
15312;SDS011;7757;52.626;4.746;2022-09-16T09:36:38;8.43;;;1.30;;
15312;SDS011;7757;52.626;4.746;2022-09-16T09:39:35;5.47;;;1.08;;
15312;SDS011;7757;52.626;4.746;2022-09-16T09:42:10;8.35;;;1.45;;
15312;SDS011;7757;52.626;4.746;2022-09-16T09:44:49;7.53;;;1.25;;
15312;SDS011;7757;52.626;4.746;2022-09-16T09:47:23;7.93;;;1.40;;
15312;SDS011;7757;52.626;4.746;2022-09-16T09:49:55;9.20;;;1.50;;
15312;SDS011;7757;52.626;4.746;2022-09-16T09:52:25;12.82;;;1.80;;
15312;SDS011;7757;52.626;4.746;2022-09-16T09:55:05;12.27;;;1.42;;
15312;SDS011;7757;52.626;4.746;2022-09-16T09:57:40;9.13;;;1.30;;
15312;SDS011;7757;52.626;4.746;2022-09-16T10:00:26;11.35;;;1.23;;
15312;SDS011;7757;52.626;4.746;2022-09-16T10:03:00;9.35;;;1.60;;
15312;SDS011;7757;52.626;4.746;2022-09-16T10:05:29;8.88;;;1.33;;
15312;SDS011;7757;52.626;4.746;2022-09-16T10:07:56;9.88;;;1.55;;
15312;SDS011;7757;52.626;4.746;2022-09-16T10:10:25;10.32;;;1.48;;
15312;SDS011;7757;52.626;4.746;2022-09-16T10:13:04;10.75;;;1.50;;
15312;SDS011;7757;52.626;4.746;2022-09-16T10:15:32;11.00;;;1.40;;
15312;SDS011;7757;52.626;4.746;2022-09-16T10:18:07;9.95;;;1.35;;
15312;SDS011;7757;52.626;4.746;2022-09-16T10:20:37;11.00;;;1.65;;
15312;SDS011;7757;52.626;4.746;2022-09-16T10:23:08;8.98;;;1.38;;
15312;SDS011;7757;52.626;4.746;2022-09-16T10:25:37;9.93;;;1.33;;
15312;SDS011;7757;52.626;4.746;2022-09-16T10:28:05;9.20;;;1.50;;
15312;SDS011;7757;52.626;4.746;2022-09-16T10:30:45;6.38;;;1.00;;
15312;SDS011;7757;52.626;4.746;2022-09-16T10:33:16;11.27;;;1.30;;
15312;SDS011;7757;52.626;4.746;2022-09-16T10:35:52;7.15;;;1.30;;
15312;SDS011;7757;52.626;4.746;2022-09-16T10:38:22;13.73;;;1.83;;
15312;SDS011;7757;52.626;4.746;2022-09-16T10:40:52;9.95;;;1.60;;
15312;SDS011;7757;52.626;4.746;2022-09-16T10:43:19;9.93;;;1.30;;
15312;SDS011;7757;52.626;4.746;2022-09-16T10:45:49;9.00;;;1.58;;
15312;SDS011;7757;52.626;4.746;2022-09-16T10:48:19;10.65;;;1.45;;
15312;SDS011;7757;52.626;4.746;2022-09-16T10:50:53;8.45;;;1.38;;
15312;SDS011;7757;52.626;4.746;2022-09-16T10:53:21;8.65;;;1.38;;
15312;SDS011;7757;52.626;4.746;2022-09-16T10:55:58;11.55;;;1.67;;
15312;SDS011;7757;52.626;4.746;2022-09-16T10:58:26;10.68;;;1.55;;
15312;SDS011;7757;52.626;4.746;2022-09-16T11:00:56;9.38;;;1.42;;
15312;SDS011;7757;52.626;4.746;2022-09-16T11:03:46;10.20;;;1.50;;
15312;SDS011;7757;52.626;4.746;2022-09-16T11:06:36;13.32;;;2.03;;
15312;SDS011;7757;52.626;4.746;2022-09-16T11:09:11;11.50;;;1.50;;
15312;SDS011;7757;52.626;4.746;2022-09-16T11:11:44;8.15;;;1.38;;
15312;SDS011;7757;52.626;4.746;2022-09-16T11:14:22;11.40;;;1.77;;
15312;SDS011;7757;52.626;4.746;2022-09-16T11:17:06;11.07;;;1.48;;
15312;SDS011;7757;52.626;4.746;2022-09-16T11:19:55;10.25;;;1.45;;
15312;SDS011;7757;52.626;4.746;2022-09-16T11:22:35;10.07;;;1.70;;
15312;SDS011;7757;52.626;4.746;2022-09-16T11:45:45;5.28;;;1.10;;
15312;SDS011;7757;52.626;4.746;2022-09-16T11:48:22;8.93;;;1.40;;
15312;SDS011;7757;52.626;4.746;2022-09-16T11:51:03;8.73;;;1.20;;
15312;SDS011;7757;52.626;4.746;2022-09-16T11:53:43;9.05;;;1.30;;
15312;SDS011;7757;52.626;4.746;2022-09-16T11:56:26;8.48;;;1.42;;
15312;SDS011;7757;52.626;4.746;2022-09-16T11:59:01;8.85;;;1.60;;
15312;SDS011;7757;52.626;4.746;2022-09-16T12:01:38;8.98;;;1.63;;
15312;SDS011;7757;52.626;4.746;2022-09-16T12:04:10;9.32;;;1.67;;
15312;SDS011;7757;52.626;4.746;2022-09-16T12:06:41;11.35;;;1.35;;
15312;SDS011;7757;52.626;4.746;2022-09-16T12:09:18;8.23;;;1.30;;
15312;SDS011;7757;52.626;4.746;2022-09-16T12:11:52;12.27;;;1.70;;
15312;SDS011;7757;52.626;4.746;2022-09-16T12:16:57;10.90;;;1.50;;
15312;SDS011;7757;52.626;4.746;2022-09-16T12:19:27;9.77;;;1.30;;
15312;SDS011;7757;52.626;4.746;2022-09-16T12:21:58;8.13;;;1.40;;
15312;SDS011;7757;52.626;4.746;2022-09-16T12:24:30;6.95;;;1.20;;
15312;SDS011;7757;52.626;4.746;2022-09-16T12:27:05;7.93;;;1.30;;
15312;SDS011;7757;52.626;4.746;2022-09-16T12:29:38;10.35;;;1.40;;
15312;SDS011;7757;52.626;4.746;2022-09-16T12:32:11;12.43;;;1.50;;
15312;SDS011;7757;52.626;4.746;2022-09-16T12:34:42;10.30;;;1.35;;
15312;SDS011;7757;52.626;4.746;2022-09-16T12:37:32;8.88;;;1.30;;
15312;SDS011;7757;52.626;4.746;2022-09-16T12:40:02;7.90;;;1.33;;
15312;SDS011;7757;52.626;4.746;2022-09-16T12:42:50;8.68;;;1.20;;
15312;SDS011;7757;52.626;4.746;2022-09-16T12:45:37;11.38;;;1.38;;
15312;SDS011;7757;52.626;4.746;2022-09-16T12:51:33;10.40;;;1.60;;
15312;SDS011;7757;52.626;4.746;2022-09-16T12:57:28;9.27;;;1.60;;
15312;SDS011;7757;52.626;4.746;2022-09-16T13:00:09;8.80;;;1.20;;
15312;SDS011;7757;52.626;4.746;2022-09-16T13:02:40;9.00;;;1.25;;
15312;SDS011;7757;52.626;4.746;2022-09-16T13:05:11;8.35;;;1.40;;
15312;SDS011;7757;52.626;4.746;2022-09-16T13:07:46;8.20;;;1.27;;
15312;SDS011;7757;52.626;4.746;2022-09-16T13:10:16;10.57;;;1.23;;
15312;SDS011;7757;52.626;4.746;2022-09-16T13:12:48;7.50;;;1.40;;
15312;SDS011;7757;52.626;4.746;2022-09-16T13:15:23;6.68;;;1.33;;
15312;SDS011;7757;52.626;4.746;2022-09-16T13:17:51;7.05;;;1.00;;
15312;SDS011;7757;52.626;4.746;2022-09-16T13:20:19;7.50;;;1.08;;
15312;SDS011;7757;52.626;4.746;2022-09-16T13:22:52;7.60;;;1.05;;
15312;SDS011;7757;52.626;4.746;2022-09-16T13:25:28;10.80;;;1.38;;
15312;SDS011;7757;52.626;4.746;2022-09-16T13:27:59;8.10;;;1.25;;
15312;SDS011;7757;52.626;4.746;2022-09-16T13:30:30;9.60;;;1.30;;
15312;SDS011;7757;52.626;4.746;2022-09-16T13:33:00;9.35;;;1.40;;
15312;SDS011;7757;52.626;4.746;2022-09-16T13:35:46;8.73;;;1.38;;
15312;SDS011;7757;52.626;4.746;2022-09-16T13:38:34;12.18;;;1.90;;
15312;SDS011;7757;52.626;4.746;2022-09-16T13:41:03;10.68;;;1.70;;
15312;SDS011;7757;52.626;4.746;2022-09-16T13:43:33;11.48;;;1.50;;
15312;SDS011;7757;52.626;4.746;2022-09-16T13:46:07;12.77;;;1.90;;
15312;SDS011;7757;52.626;4.746;2022-09-16T13:48:41;12.25;;;1.83;;
15312;SDS011;7757;52.626;4.746;2022-09-16T13:51:15;11.35;;;1.83;;
15312;SDS011;7757;52.626;4.746;2022-09-16T13:53:47;10.50;;;1.70;;
15312;SDS011;7757;52.626;4.746;2022-09-16T13:56:28;10.10;;;1.58;;
15312;SDS011;7757;52.626;4.746;2022-09-16T13:59:14;10.23;;;1.63;;
15312;SDS011;7757;52.626;4.746;2022-09-16T14:01:53;11.80;;;1.85;;
15312;SDS011;7757;52.626;4.746;2022-09-16T14:04:33;13.48;;;2.30;;
15312;SDS011;7757;52.626;4.746;2022-09-16T14:07:13;10.65;;;1.83;;
15312;SDS011;7757;52.626;4.746;2022-09-16T14:09:54;11.52;;;1.65;;
15312;SDS011;7757;52.626;4.746;2022-09-16T14:14:56;8.50;;;1.70;;
15312;SDS011;7757;52.626;4.746;2022-09-16T14:17:24;11.43;;;1.75;;
15312;SDS011;7757;52.626;4.746;2022-09-16T14:19:54;12.65;;;1.83;;
15312;SDS011;7757;52.626;4.746;2022-09-16T14:22:23;10.88;;;1.70;;
15312;SDS011;7757;52.626;4.746;2022-09-16T14:24:53;8.98;;;1.40;;
15312;SDS011;7757;52.626;4.746;2022-09-16T14:27:20;13.15;;;1.75;;
15312;SDS011;7757;52.626;4.746;2022-09-16T14:29:52;9.35;;;1.60;;
15312;SDS011;7757;52.626;4.746;2022-09-16T14:32:20;12.02;;;1.65;;
15312;SDS011;7757;52.626;4.746;2022-09-16T14:34:49;11.25;;;1.50;;
15312;SDS011;7757;52.626;4.746;2022-09-16T14:37:18;9.73;;;1.65;;
15312;SDS011;7757;52.626;4.746;2022-09-16T14:39:46;10.98;;;1.60;;
15312;SDS011;7757;52.626;4.746;2022-09-16T14:42:15;10.13;;;1.50;;
15312;SDS011;7757;52.626;4.746;2022-09-16T14:44:45;12.95;;;1.80;;
15312;SDS011;7757;52.626;4.746;2022-09-16T14:47:16;13.50;;;2.08;;
15312;SDS011;7757;52.626;4.746;2022-09-16T14:49:46;8.57;;;1.58;;
15312;SDS011;7757;52.626;4.746;2022-09-16T14:52:16;10.07;;;1.80;;
15312;SDS011;7757;52.626;4.746;2022-09-16T14:54:45;7.25;;;1.63;;
15312;SDS011;7757;52.626;4.746;2022-09-16T14:57:15;10.25;;;1.85;;
15312;SDS011;7757;52.626;4.746;2022-09-16T14:59:46;11.45;;;1.55;;
15312;SDS011;7757;52.626;4.746;2022-09-16T15:02:15;9.75;;;1.60;;
15312;SDS011;7757;52.626;4.746;2022-09-16T15:04:48;10.82;;;1.40;;
15312;SDS011;7757;52.626;4.746;2022-09-16T15:07:19;11.07;;;1.60;;
15312;SDS011;7757;52.626;4.746;2022-09-16T15:09:49;11.82;;;1.60;;
15312;SDS011;7757;52.626;4.746;2022-09-16T15:12:24;11.60;;;1.75;;
15312;SDS011;7757;52.626;4.746;2022-09-16T15:14:53;11.60;;;1.77;;
15312;SDS011;7757;52.626;4.746;2022-09-16T15:17:20;11.50;;;2.10;;
15312;SDS011;7757;52.626;4.746;2022-09-16T15:19:50;11.15;;;1.70;;
15312;SDS011;7757;52.626;4.746;2022-09-16T15:22:20;9.88;;;1.70;;
15312;SDS011;7757;52.626;4.746;2022-09-16T15:24:48;11.40;;;2.00;;
15312;SDS011;7757;52.626;4.746;2022-09-16T15:27:22;10.15;;;1.80;;
15312;SDS011;7757;52.626;4.746;2022-09-16T15:29:53;13.38;;;1.83;;
15312;SDS011;7757;52.626;4.746;2022-09-16T15:32:23;10.05;;;2.00;;
15312;SDS011;7757;52.626;4.746;2022-09-16T15:37:47;12.27;;;2.30;;
15312;SDS011;7757;52.626;4.746;2022-09-16T15:40:19;12.50;;;1.90;;
15312;SDS011;7757;52.626;4.746;2022-09-16T15:43:04;10.75;;;1.75;;
15312;SDS011;7757;52.626;4.746;2022-09-16T15:45:37;11.18;;;1.98;;
15312;SDS011;7757;52.626;4.746;2022-09-16T15:48:05;13.57;;;1.73;;
15312;SDS011;7757;52.626;4.746;2022-09-16T15:50:37;10.70;;;1.90;;
15312;SDS011;7757;52.626;4.746;2022-09-16T15:53:08;10.82;;;1.83;;
15312;SDS011;7757;52.626;4.746;2022-09-16T15:55:39;13.15;;;1.88;;
15312;SDS011;7757;52.626;4.746;2022-09-16T15:58:12;10.75;;;1.92;;
15312;SDS011;7757;52.626;4.746;2022-09-16T16:00:58;12.20;;;2.05;;
15312;SDS011;7757;52.626;4.746;2022-09-16T16:03:27;11.80;;;1.85;;